createdAt,value
2018-06-15T00:01:02.145Z,7.20
2018-06-15T00:03:30.879Z,7.50
2018-06-15T00:05:59.681Z,8.13
2018-06-15T00:08:28.522Z,7.50
2018-06-15T00:10:57.247Z,8.30
2018-06-15T00:13:25.957Z,7.60
2018-06-15T00:15:54.372Z,7.63
2018-06-15T00:18:23.048Z,7.70
2018-06-15T00:20:51.779Z,7.37
2018-06-15T00:23:20.522Z,6.30
2018-06-15T00:25:49.374Z,5.80
2018-06-15T00:28:18.162Z,6.03
2018-06-15T00:30:46.946Z,6.87
2018-06-15T00:33:15.743Z,6.23
2018-06-15T00:35:44.641Z,6.30
2018-06-15T00:38:13.408Z,6.13
2018-06-15T00:40:42.230Z,5.27
2018-06-15T00:43:10.989Z,5.23
2018-06-15T00:45:39.710Z,5.13
2018-06-15T00:48:08.502Z,5.40
2018-06-15T00:50:37.216Z,5.00
2018-06-15T00:53:05.968Z,5.20
2018-06-15T00:55:34.839Z,4.83
2018-06-15T00:58:03.625Z,5.33
2018-06-15T01:00:32.415Z,6.30
2018-06-15T01:03:01.157Z,6.93
2018-06-15T01:05:29.993Z,7.10
2018-06-15T01:07:58.745Z,6.50
2018-06-15T01:10:27.471Z,7.60
2018-06-15T01:12:56.210Z,7.67
2018-06-15T01:15:24.948Z,7.80
2018-06-15T01:17:53.701Z,7.63
2018-06-15T01:20:22.430Z,8.27
2018-06-15T01:22:51.176Z,8.40
2018-06-15T01:25:19.899Z,8.47
2018-06-15T01:27:48.681Z,8.80
2018-06-15T01:30:17.408Z,8.93
2018-06-15T01:32:46.161Z,8.83
2018-06-15T01:35:14.920Z,8.70
2018-06-15T01:37:43.642Z,8.77
2018-06-15T01:40:12.423Z,9.20
2018-06-15T01:42:41.177Z,9.60
2018-06-15T01:45:09.996Z,9.70
2018-06-15T01:47:38.734Z,9.47
2018-06-15T01:50:07.479Z,9.73
2018-06-15T01:52:36.271Z,8.73
2018-06-15T01:55:04.993Z,9.50
2018-06-15T01:57:33.740Z,9.53
2018-06-15T02:00:02.502Z,9.33
2018-06-15T02:02:31.319Z,9.10
2018-06-15T02:05:00.075Z,9.97
2018-06-15T02:07:28.843Z,10.00
2018-06-15T02:09:57.590Z,10.50
2018-06-15T02:12:26.328Z,9.50
2018-06-15T02:14:55.085Z,9.33
2018-06-15T02:17:23.813Z,9.10
2018-06-15T02:19:52.528Z,8.60
2018-06-15T02:22:21.110Z,9.53
2018-06-15T02:24:49.813Z,10.00
2018-06-15T02:27:18.571Z,9.07
2018-06-15T02:29:47.333Z,10.07
2018-06-15T02:32:16.123Z,10.37
2018-06-15T02:34:44.852Z,9.20
2018-06-15T02:37:13.630Z,10.10
2018-06-15T02:39:42.210Z,9.93
2018-06-15T02:42:10.925Z,10.07
2018-06-15T02:44:39.711Z,9.60
2018-06-15T02:47:08.477Z,10.07
2018-06-15T02:49:37.288Z,9.97
2018-06-15T02:52:06.039Z,10.10
2018-06-15T02:54:34.864Z,10.57
2018-06-15T02:57:03.598Z,10.77
2018-06-15T02:59:32.366Z,10.27
2018-06-15T03:02:01.131Z,11.53
2018-06-15T03:04:29.916Z,10.20
2018-06-15T03:06:58.755Z,11.27
2018-06-15T03:09:27.534Z,11.30
2018-06-15T03:11:56.280Z,11.33
2018-06-15T03:14:25.021Z,10.73
2018-06-15T03:16:53.858Z,11.83
2018-06-15T03:19:22.586Z,11.50
2018-06-15T03:21:51.312Z,11.47
2018-06-15T03:24:19.908Z,12.27
2018-06-15T03:26:48.534Z,12.17
2018-06-15T03:29:17.279Z,11.60
2018-06-15T03:31:45.900Z,13.20
2018-06-15T03:34:14.588Z,11.37
2018-06-15T03:36:43.553Z,12.60
2018-06-15T03:39:12.753Z,12.13
2018-06-15T03:41:41.511Z,12.43
2018-06-15T03:44:10.265Z,12.80
2018-06-15T03:46:39.219Z,12.70
2018-06-15T03:49:07.971Z,12.23
2018-06-15T03:51:36.870Z,12.03
2018-06-15T03:54:05.613Z,12.50
2018-06-15T03:56:34.486Z,13.37
2018-06-15T03:59:03.252Z,12.67
2018-06-15T04:01:31.885Z,12.93
2018-06-15T04:04:00.547Z,12.80
2018-06-15T04:06:29.302Z,14.50
2018-06-15T04:08:58.128Z,12.47
2018-06-15T04:11:26.966Z,12.87
2018-06-15T04:13:55.728Z,13.73
2018-06-15T04:16:24.583Z,14.10
2018-06-15T04:18:53.324Z,14.37
2018-06-15T04:21:22.151Z,13.60
2018-06-15T04:23:50.766Z,12.60
2018-06-15T04:26:20.171Z,13.67
2018-06-15T04:28:48.849Z,13.10
2018-06-15T04:31:17.642Z,12.80
2018-06-15T04:33:46.421Z,12.77
2018-06-15T04:36:15.306Z,12.67
2018-06-15T04:38:44.130Z,12.70
2018-06-15T04:41:12.946Z,13.80
2018-06-15T04:43:42.176Z,13.50
2018-06-15T04:46:10.976Z,12.53
2018-06-15T04:48:39.769Z,12.13
2018-06-15T04:51:08.659Z,11.87
2018-06-15T04:53:37.449Z,13.00
2018-06-15T04:56:06.212Z,13.10
2018-06-15T04:58:34.830Z,12.97
2018-06-15T05:01:03.510Z,13.00
2018-06-15T05:03:32.292Z,13.50
2018-06-15T05:06:01.094Z,14.30
2018-06-15T05:08:29.895Z,18.73
2018-06-15T05:10:58.628Z,19.37
2018-06-15T05:13:27.365Z,21.37
2018-06-15T05:15:56.220Z,22.03
2018-06-15T05:18:24.797Z,21.30
2018-06-15T05:20:53.517Z,20.00
2018-06-15T05:23:22.337Z,19.80
2018-06-15T05:25:51.098Z,17.03
2018-06-15T05:28:19.891Z,16.30
2018-06-15T05:30:48.636Z,15.33
2018-06-15T05:33:17.235Z,14.50
2018-06-15T05:35:45.873Z,13.00
2018-06-15T05:38:14.660Z,12.70
2018-06-15T05:40:43.451Z,12.33
2018-06-15T05:43:12.328Z,11.90
2018-06-15T05:45:41.209Z,12.10
2018-06-15T05:48:10.004Z,12.00
2018-06-15T05:50:38.768Z,12.83
2018-06-15T05:53:07.531Z,12.57
2018-06-15T05:55:36.254Z,11.70
2018-06-15T05:58:04.916Z,11.50
2018-06-15T06:00:33.991Z,12.47
2018-06-15T06:03:02.738Z,11.90
2018-06-15T06:05:31.618Z,12.13
2018-06-15T06:08:00.361Z,13.40
2018-06-15T06:10:29.145Z,11.07
2018-06-15T06:12:57.977Z,12.17
2018-06-15T06:15:26.843Z,12.33
2018-06-15T06:17:55.590Z,12.50
2018-06-15T06:20:24.448Z,12.27
2018-06-15T06:22:53.247Z,11.13
2018-06-15T06:25:21.963Z,13.27
2018-06-15T06:27:50.784Z,12.90
2018-06-15T06:30:19.358Z,11.37
2018-06-15T06:32:48.008Z,12.03
2018-06-15T06:35:16.761Z,12.37
2018-06-15T06:37:45.560Z,11.50
2018-06-15T06:40:14.491Z,11.43
2018-06-15T06:42:43.239Z,11.73
2018-06-15T06:45:12.062Z,10.93
2018-06-15T06:47:40.790Z,12.33
2018-06-15T06:50:09.378Z,12.00
2018-06-15T06:52:38.060Z,11.13
2018-06-15T06:55:06.645Z,11.30
2018-06-15T06:57:35.271Z,11.80
2018-06-15T07:00:04.456Z,11.20
2018-06-15T07:02:33.288Z,11.60
2018-06-15T07:05:02.079Z,11.90
2018-06-15T07:07:30.874Z,11.07
2018-06-15T07:09:59.631Z,11.60
2018-06-15T07:12:28.391Z,11.77
2018-06-15T07:14:58.236Z,11.27
2018-06-15T07:17:27.075Z,11.53
2018-06-15T07:19:55.693Z,10.70
2018-06-15T07:22:24.163Z,12.10
2018-06-15T07:24:52.613Z,12.07
2018-06-15T07:27:21.547Z,11.50
2018-06-15T07:29:50.288Z,11.73
2018-06-15T07:32:19.053Z,11.63
2018-06-15T07:34:47.812Z,11.33
2018-06-15T07:37:16.559Z,12.83
2018-06-15T07:39:45.401Z,11.87
2018-06-15T07:42:14.544Z,11.13
2018-06-15T07:44:43.362Z,11.70
2018-06-15T07:47:12.094Z,11.17
2018-06-15T07:49:40.949Z,11.60
2018-06-15T07:52:09.806Z,11.40
2018-06-15T07:54:38.564Z,10.77
2018-06-15T07:57:07.423Z,11.27
2018-06-15T07:59:36.234Z,10.43
2018-06-15T08:02:04.888Z,10.53
2018-06-15T08:04:33.342Z,10.57
2018-06-15T08:07:01.985Z,10.50
2018-06-15T08:09:30.851Z,10.83
2018-06-15T08:11:59.741Z,10.77
2018-06-15T08:14:28.498Z,9.93
2018-06-15T08:16:57.303Z,9.93
2018-06-15T08:19:25.895Z,11.83
2018-06-15T08:21:54.890Z,11.43
2018-06-15T08:24:23.349Z,10.13
2018-06-15T08:26:51.994Z,9.37
2018-06-15T08:29:20.880Z,8.73
2018-06-15T08:31:49.603Z,10.90
2018-06-15T08:34:18.436Z,9.47
2018-06-15T08:36:47.157Z,9.40
2018-06-15T08:39:16.127Z,8.07
2018-06-15T08:41:45.014Z,6.63
2018-06-15T08:44:13.866Z,7.97
2018-06-15T08:46:42.699Z,7.27
2018-06-15T08:49:11.509Z,9.10
2018-06-15T08:51:40.329Z,9.20
2018-06-15T08:54:09.065Z,8.43
2018-06-15T08:56:38.087Z,9.23
2018-06-15T08:59:06.900Z,8.83
2018-06-15T09:01:35.742Z,9.03
2018-06-15T09:04:04.505Z,8.70
2018-06-15T09:06:33.321Z,10.03
2018-06-15T09:09:03.197Z,9.40
2018-06-15T09:11:31.912Z,9.17
2018-06-15T09:14:00.552Z,8.77
2018-06-15T09:16:29.425Z,9.20
2018-06-15T09:18:58.152Z,8.90
2018-06-15T09:21:27.020Z,10.10
2018-06-15T09:23:55.857Z,9.43
2018-06-15T09:26:24.576Z,9.33
2018-06-15T09:28:53.324Z,9.47
2018-06-15T09:31:22.396Z,9.20
2018-06-15T09:33:51.011Z,8.47
2018-06-15T09:36:19.688Z,9.07
2018-06-15T09:38:48.524Z,8.33
2018-06-15T09:41:17.322Z,7.03
2018-06-15T09:43:46.129Z,7.43
2018-06-15T09:46:14.765Z,6.70
2018-06-15T09:48:44.668Z,6.30
2018-06-15T09:51:14.785Z,6.73
2018-06-15T09:53:43.545Z,6.57
2018-06-15T09:56:12.118Z,6.23
2018-06-15T09:58:40.822Z,6.70
2018-06-15T10:01:10.550Z,5.37
2018-06-15T10:03:39.971Z,5.10
2018-06-15T10:06:08.654Z,6.37
2018-06-15T10:08:37.396Z,4.80
2018-06-15T10:11:06.214Z,5.33
2018-06-15T10:13:34.806Z,5.53
2018-06-15T10:16:03.708Z,4.43
2018-06-15T10:18:32.476Z,4.50
2018-06-15T10:21:01.263Z,4.37
2018-06-15T10:23:29.959Z,3.67
2018-06-15T10:25:58.662Z,3.87
2018-06-15T10:28:27.460Z,5.20
2018-06-15T10:30:56.211Z,3.70
2018-06-15T10:33:24.969Z,4.73
2018-06-15T10:35:53.702Z,4.67
2018-06-15T10:38:22.561Z,4.50
2018-06-15T10:40:51.299Z,3.90
2018-06-15T10:43:20.020Z,4.50
2018-06-15T10:45:48.761Z,3.87
2018-06-15T10:48:17.742Z,3.30
2018-06-15T10:50:46.501Z,2.70
2018-06-15T10:53:15.228Z,2.80
2018-06-15T10:55:43.959Z,2.50
2018-06-15T10:58:12.761Z,1.87
2018-06-15T11:00:41.567Z,1.73
2018-06-15T11:03:10.195Z,1.60
2018-06-15T11:05:38.855Z,3.13
2018-06-15T11:08:07.640Z,3.20
2018-06-15T11:10:36.536Z,4.00
2018-06-15T11:13:05.516Z,2.73
2018-06-15T11:15:34.307Z,3.17
2018-06-15T11:18:03.145Z,3.23
2018-06-15T11:20:31.887Z,3.17
2018-06-15T11:23:00.627Z,3.57
2018-06-15T11:25:29.382Z,4.37
2018-06-15T11:27:58.250Z,5.50
2018-06-15T11:30:26.814Z,3.80
2018-06-15T11:32:55.493Z,8.17
2018-06-15T11:35:24.339Z,4.07
2018-06-15T11:37:53.088Z,4.13
2018-06-15T11:40:21.687Z,4.00
2018-06-15T11:42:50.150Z,3.80
2018-06-15T11:45:18.806Z,3.70
2018-06-15T11:47:47.581Z,4.63
2018-06-15T11:50:16.371Z,4.33
2018-06-15T11:52:45.419Z,5.20
2018-06-15T11:55:14.122Z,6.00
2018-06-15T11:57:42.606Z,5.23
2018-06-15T12:00:11.059Z,6.00
2018-06-15T12:02:39.788Z,3.77
2018-06-15T12:05:08.571Z,4.27
2018-06-15T12:07:37.393Z,4.93
2018-06-15T12:10:06.175Z,4.40
2018-06-15T12:12:34.917Z,4.50
2018-06-15T12:15:03.711Z,4.53
2018-06-15T12:17:32.506Z,5.20
2018-06-15T12:20:01.521Z,5.03
2018-06-15T12:22:30.279Z,5.40
2018-06-15T12:24:59.262Z,4.50
2018-06-15T12:27:27.846Z,3.90
2018-06-15T12:29:56.657Z,3.90
2018-06-15T12:32:25.502Z,6.03
2018-06-15T12:34:54.292Z,4.97
2018-06-15T12:37:23.081Z,5.37
2018-06-15T12:39:52.215Z,4.43
2018-06-15T12:42:21.094Z,5.60
2018-06-15T12:44:49.667Z,4.33
2018-06-15T12:47:18.341Z,6.23
2018-06-15T12:49:47.198Z,4.70
2018-06-15T12:52:16.155Z,4.57
2018-06-15T12:54:44.953Z,5.93
2018-06-15T12:57:13.687Z,4.40
2018-06-15T12:59:42.436Z,4.60
2018-06-15T13:02:11.256Z,4.40
2018-06-15T13:04:40.010Z,6.97
2018-06-15T13:07:08.719Z,5.30
2018-06-15T13:09:37.496Z,5.43
2018-06-15T13:12:06.260Z,5.63
2018-06-15T13:14:35.121Z,5.03
2018-06-15T13:17:03.952Z,5.00
2018-06-15T13:19:32.838Z,5.43
2018-06-15T13:22:01.414Z,4.43
2018-06-15T13:24:33.585Z,5.27
2018-06-15T13:27:02.336Z,5.00
2018-06-15T13:29:31.430Z,5.90
2018-06-15T13:32:00.363Z,4.90
2018-06-15T13:34:29.224Z,4.67
2018-06-15T13:36:58.037Z,4.30
2018-06-15T13:39:26.648Z,5.30
2018-06-15T13:41:55.416Z,5.63
2018-06-15T13:44:24.192Z,4.67
2018-06-15T13:46:52.954Z,4.90
2018-06-15T13:49:21.872Z,5.00
2018-06-15T13:51:50.444Z,4.93
2018-06-15T13:54:19.117Z,5.37
2018-06-15T13:56:47.819Z,4.93
2018-06-15T13:59:16.444Z,4.77
2018-06-15T14:01:45.053Z,4.90
2018-06-15T14:04:13.791Z,5.63
2018-06-15T14:06:42.692Z,5.37
2018-06-15T14:09:11.593Z,5.80
2018-06-15T14:11:40.345Z,5.30
2018-06-15T14:14:09.157Z,7.90
2018-06-15T14:16:37.948Z,5.40
2018-06-15T14:19:06.689Z,5.27
2018-06-15T14:21:35.440Z,4.77
2018-06-15T14:24:04.156Z,5.10
2018-06-15T14:26:33.110Z,5.00
2018-06-15T14:29:01.853Z,5.13
2018-06-15T14:31:30.793Z,4.90
2018-06-15T14:33:59.537Z,4.13
2018-06-15T14:36:28.334Z,4.70
2018-06-15T14:38:57.062Z,5.83
2018-06-15T14:41:25.801Z,5.07
2018-06-15T14:43:54.639Z,5.03
2018-06-15T14:46:23.378Z,4.80
2018-06-15T14:48:52.211Z,4.87
2018-06-15T14:51:20.954Z,3.80
2018-06-15T14:53:49.857Z,4.30
2018-06-15T14:56:18.640Z,4.63
2018-06-15T14:58:47.356Z,5.10
2018-06-15T15:01:16.092Z,4.10
2018-06-15T15:03:44.940Z,3.97
2018-06-15T15:06:13.772Z,3.87
2018-06-15T15:08:42.612Z,3.70
2018-06-15T15:11:11.184Z,3.60
2018-06-15T15:13:39.820Z,3.97
2018-06-15T15:16:08.562Z,4.00
2018-06-15T15:18:37.171Z,3.90
2018-06-15T15:21:05.844Z,3.97
2018-06-15T15:23:34.588Z,5.60
2018-06-15T15:26:03.356Z,4.03
2018-06-15T15:28:32.204Z,4.80
2018-06-15T15:31:00.977Z,4.63
2018-06-15T15:33:29.785Z,4.67
2018-06-15T15:35:58.456Z,4.30
2018-06-15T15:38:27.158Z,4.63
2018-06-15T15:40:55.962Z,4.73
2018-06-15T15:43:24.719Z,4.23
2018-06-15T15:45:53.347Z,4.23
2018-06-15T15:48:22.004Z,4.50
2018-06-15T15:50:50.834Z,4.90
2018-06-15T15:53:19.707Z,4.60
2018-06-15T15:55:48.476Z,4.93
2018-06-15T15:58:17.224Z,5.03
2018-06-15T16:00:45.985Z,6.13
2018-06-15T16:03:14.995Z,5.03
2018-06-15T16:05:43.757Z,5.13
2018-06-15T16:08:12.709Z,4.90
2018-06-15T16:10:41.649Z,5.00
2018-06-15T16:13:10.646Z,4.80
2018-06-15T16:15:39.420Z,5.07
2018-06-15T16:18:08.179Z,4.30
2018-06-15T16:20:36.786Z,4.63
2018-06-15T16:23:05.375Z,4.47
2018-06-15T16:25:34.051Z,4.27
2018-06-15T16:28:02.945Z,5.13
2018-06-15T16:30:31.811Z,4.23
2018-06-15T16:33:00.525Z,4.80
2018-06-15T16:35:29.212Z,3.73
2018-06-15T16:37:57.695Z,4.87
2018-06-15T16:40:26.159Z,4.17
2018-06-15T16:42:54.773Z,4.87
2018-06-15T16:45:23.640Z,5.33
2018-06-15T16:47:52.572Z,5.43
2018-06-15T16:50:21.326Z,4.80
2018-06-15T16:52:50.122Z,5.47
2018-06-15T16:55:18.861Z,5.37
2018-06-15T16:57:47.640Z,4.53
2018-06-15T17:00:23.234Z,4.83
2018-06-15T17:02:52.048Z,4.90
2018-06-15T17:05:20.788Z,4.47
2018-06-15T17:07:49.379Z,4.83
2018-06-15T17:10:18.194Z,4.87
2018-06-15T17:12:47.188Z,4.23
2018-06-15T17:15:15.949Z,5.23
2018-06-15T17:17:44.753Z,4.17
2018-06-15T17:20:13.452Z,4.23
2018-06-15T17:22:42.133Z,4.37
2018-06-15T17:25:10.882Z,4.40
2018-06-15T17:27:39.597Z,3.60
2018-06-15T17:30:08.496Z,4.23
2018-06-15T17:32:37.592Z,3.90
2018-06-15T17:35:06.352Z,3.80
2018-06-15T17:37:35.151Z,4.70
2018-06-15T17:40:03.936Z,4.90
2018-06-15T17:42:32.697Z,4.70
2018-06-15T17:45:01.453Z,5.30
2018-06-15T17:47:30.172Z,4.87
2018-06-15T17:49:59.011Z,4.50
2018-06-15T17:52:27.796Z,5.77
2018-06-15T17:54:56.524Z,5.80
2018-06-15T17:57:25.261Z,5.10
2018-06-15T17:59:53.926Z,5.70
2018-06-15T18:02:22.642Z,4.97
2018-06-15T18:04:51.513Z,4.40
2018-06-15T18:07:20.287Z,4.67
2018-06-15T18:09:49.118Z,4.93
2018-06-15T18:12:17.901Z,5.20
2018-06-15T18:14:46.447Z,5.03
2018-06-15T18:17:15.188Z,4.57
2018-06-15T18:19:43.909Z,5.37
2018-06-15T18:22:12.779Z,5.00
2018-06-15T18:24:41.516Z,5.60
2018-06-15T18:27:10.345Z,5.43
2018-06-15T18:29:39.118Z,5.27
2018-06-15T18:32:07.879Z,5.60
2018-06-15T18:34:36.612Z,5.37
2018-06-15T18:37:05.503Z,4.80
2018-06-15T18:39:34.362Z,5.10
2018-06-15T18:42:03.151Z,5.33
2018-06-15T18:44:31.750Z,5.07
2018-06-15T18:47:00.287Z,6.63
2018-06-15T18:49:28.934Z,5.90
2018-06-15T18:51:57.755Z,5.17
2018-06-15T18:54:26.609Z,5.27
2018-06-15T18:56:55.305Z,4.87
2018-06-15T18:59:24.134Z,5.30
2018-06-15T19:01:52.932Z,5.63
2018-06-15T19:04:21.749Z,5.30
2018-06-15T19:06:50.705Z,5.20
2018-06-15T19:09:19.420Z,5.63
2018-06-15T19:11:48.028Z,4.97
2018-06-15T19:14:16.455Z,5.43
2018-06-15T19:16:45.129Z,5.40
2018-06-15T19:19:13.890Z,4.77
2018-06-15T19:21:42.668Z,5.50
2018-06-15T19:24:11.416Z,5.77
2018-06-15T19:26:40.229Z,5.00
2018-06-15T19:29:09.156Z,5.57
2018-06-15T19:31:37.859Z,5.00
2018-06-15T19:34:06.604Z,4.93
2018-06-15T19:36:35.401Z,5.27
2018-06-15T19:39:06.240Z,5.20
2018-06-15T19:41:34.961Z,4.73
2018-06-15T19:44:03.687Z,5.27
2018-06-15T19:46:32.243Z,5.47
2018-06-15T19:49:00.916Z,4.80
2018-06-15T19:51:29.704Z,5.33
2018-06-15T19:53:58.443Z,6.13
2018-06-15T19:56:27.271Z,6.13
2018-06-15T19:58:55.944Z,6.17
2018-06-15T20:01:24.497Z,5.37
2018-06-15T20:03:53.093Z,5.60
2018-06-15T20:06:21.840Z,5.97
2018-06-15T20:08:50.649Z,6.10
2018-06-15T20:11:19.411Z,5.50
2018-06-15T20:13:48.247Z,6.33
2018-06-15T20:16:16.972Z,6.80
2018-06-15T20:18:45.719Z,5.73
2018-06-15T20:21:14.516Z,6.30
2018-06-15T20:23:43.240Z,5.93
2018-06-15T20:26:11.982Z,6.27
2018-06-15T20:28:40.559Z,6.93
2018-06-15T20:31:09.324Z,6.83
2018-06-15T20:33:38.057Z,9.13
2018-06-15T20:36:06.857Z,6.60
2018-06-15T20:38:35.509Z,6.90
2018-06-15T20:41:04.194Z,6.10
2018-06-15T20:43:32.743Z,5.80
2018-06-15T20:46:01.368Z,7.20
2018-06-15T20:48:30.050Z,6.97
2018-06-15T20:50:58.855Z,6.90
2018-06-15T20:53:27.618Z,6.63
2018-06-15T20:55:56.535Z,6.50
2018-06-15T20:58:25.383Z,7.17
2018-06-15T21:00:54.227Z,6.77
2018-06-15T21:03:23.119Z,6.90
2018-06-15T21:05:51.902Z,7.20
2018-06-15T21:08:20.777Z,7.30
2018-06-15T21:10:49.561Z,6.13
2018-06-15T21:13:18.169Z,7.17
2018-06-15T21:15:46.653Z,7.27
2018-06-15T21:18:15.224Z,7.67
2018-06-15T21:20:43.912Z,7.97
2018-06-15T21:23:12.705Z,7.93
2018-06-15T21:25:41.430Z,7.17
2018-06-15T21:28:10.188Z,7.43
2018-06-15T21:30:38.978Z,6.73
2018-06-15T21:33:07.860Z,6.87
2018-06-15T21:35:36.627Z,7.13
2018-06-15T21:38:05.252Z,6.77
2018-06-15T21:40:33.865Z,6.57
2018-06-15T21:43:02.608Z,6.83
2018-06-15T21:45:31.393Z,7.10
2018-06-15T21:48:00.138Z,6.90
2018-06-15T21:50:29.084Z,6.47
2018-06-15T21:52:57.884Z,6.87
2018-06-15T21:55:26.625Z,6.10
2018-06-15T21:57:55.389Z,6.10
2018-06-15T22:00:25.161Z,6.27
2018-06-15T22:02:53.904Z,6.43
2018-06-15T22:05:22.677Z,6.50
2018-06-15T22:07:51.398Z,7.40
2018-06-15T22:10:20.028Z,7.03
2018-06-15T22:12:48.797Z,6.80
2018-06-15T22:15:17.668Z,6.63
2018-06-15T22:17:46.504Z,6.93
2018-06-15T22:20:15.229Z,6.80
2018-06-15T22:22:43.952Z,7.57
2018-06-15T22:25:12.745Z,6.80
2018-06-15T22:27:41.524Z,7.23
2018-06-15T22:30:10.316Z,6.53
2018-06-15T22:32:39.092Z,7.17
2018-06-15T22:35:07.882Z,6.77
2018-06-15T22:37:36.627Z,6.83
2018-06-15T22:40:05.371Z,7.03
2018-06-15T22:42:34.182Z,6.63
2018-06-15T22:45:02.929Z,6.67
2018-06-15T22:47:31.652Z,7.10
2018-06-15T22:50:00.437Z,7.23
2018-06-15T22:52:29.407Z,7.93
2018-06-15T22:54:58.187Z,6.90
2018-06-15T22:57:26.993Z,7.10
2018-06-15T22:59:55.828Z,7.03
2018-06-15T23:02:24.639Z,7.73
2018-06-15T23:04:53.457Z,6.50
2018-06-15T23:07:22.181Z,6.50
2018-06-15T23:09:51.005Z,6.27
2018-06-15T23:12:19.820Z,6.63
2018-06-15T23:14:48.582Z,7.60
2018-06-15T23:17:17.400Z,6.93
2018-06-15T23:19:46.143Z,7.23
2018-06-15T23:22:14.907Z,6.60
2018-06-15T23:24:43.862Z,6.63
2018-06-15T23:27:12.496Z,6.90
2018-06-15T23:29:41.081Z,6.70
2018-06-15T23:32:09.813Z,6.60
2018-06-15T23:34:38.386Z,8.33
2018-06-15T23:37:07.096Z,7.03
2018-06-15T23:39:36.044Z,6.73
2018-06-15T23:42:04.890Z,6.97
2018-06-15T23:44:33.717Z,7.03
2018-06-15T23:47:02.557Z,7.23
2018-06-15T23:49:31.451Z,7.60
2018-06-15T23:52:00.905Z,7.53
2018-06-15T23:54:29.708Z,7.20
2018-06-15T23:56:58.527Z,6.40
2018-06-15T23:59:27.316Z,7.30
